createdAt,value
2022-12-25T00:01:15.377Z,101087.09
2022-12-25T00:03:42.101Z,101085.59
2022-12-25T00:06:08.758Z,101093.50
2022-12-25T00:08:35.844Z,101085.00
2022-12-25T00:11:06.409Z,101095.47
2022-12-25T00:13:33.188Z,101086.13
2022-12-25T00:15:59.667Z,101088.94
2022-12-25T00:18:26.148Z,101084.84
2022-12-25T00:20:56.306Z,101084.94
2022-12-25T00:23:22.744Z,101082.44
2022-12-25T00:25:49.221Z,101081.00
2022-12-25T00:28:15.719Z,101093.34
2022-12-25T00:30:42.153Z,101090.78
2022-12-25T00:33:08.707Z,101087.50
2022-12-25T00:35:35.238Z,101097.03
2022-12-25T00:38:01.741Z,101094.56
2022-12-25T00:40:28.254Z,101101.50
2022-12-25T00:42:54.693Z,101099.81
2022-12-25T00:45:21.282Z,101101.75
2022-12-25T00:47:47.853Z,101109.56
2022-12-25T00:50:14.384Z,101117.38
2022-12-25T00:52:40.872Z,101132.25
2022-12-25T00:55:07.447Z,101128.06
2022-12-25T00:57:34.059Z,101127.38
2022-12-25T01:00:00.515Z,101130.84
2022-12-25T01:02:27.280Z,101130.84
2022-12-25T01:04:54.969Z,101118.88
2022-12-25T01:07:21.894Z,101122.56
2022-12-25T01:10:07.299Z,101120.81
2022-12-25T01:12:34.764Z,101123.53
2022-12-25T01:15:01.264Z,101126.28
2022-12-25T01:17:27.731Z,101139.31
2022-12-25T01:19:54.186Z,101142.78
2022-12-25T01:22:20.736Z,101151.41
2022-12-25T01:24:47.251Z,101164.41
2022-12-25T01:27:13.796Z,101155.97
2022-12-25T01:29:40.538Z,101154.38
2022-12-25T01:32:07.225Z,101155.28
2022-12-25T01:34:33.954Z,101162.25
2022-12-25T01:37:00.461Z,101164.84
2022-12-25T01:39:26.969Z,101165.91
2022-12-25T01:41:53.418Z,101153.91
2022-12-25T01:44:19.855Z,101164.34
2022-12-25T01:46:46.433Z,101164.47
2022-12-25T01:49:15.221Z,101168.81
2022-12-25T01:51:48.137Z,101174.84
2022-12-25T01:54:23.894Z,101186.09
2022-12-25T01:56:51.696Z,101184.53
2022-12-25T01:59:19.751Z,101187.19
2022-12-25T02:01:46.980Z,101193.25
2022-12-25T02:04:17.747Z,101192.44
2022-12-25T02:06:44.207Z,101194.31
2022-12-25T02:09:10.721Z,101189.22
2022-12-25T02:11:55.899Z,101187.53
2022-12-25T02:14:22.623Z,101184.06
2022-12-25T02:16:57.941Z,101185.91
2022-12-25T02:19:44.084Z,101174.88
2022-12-25T02:22:10.508Z,101186.09
2022-12-25T02:24:48.489Z,101186.97
2022-12-25T02:27:18.831Z,101191.28
2022-12-25T02:29:48.533Z,101193.06
2022-12-25T02:32:20.936Z,101191.41
2022-12-25T02:34:51.354Z,101200.91
2022-12-25T02:37:20.916Z,101204.28
2022-12-25T02:40:09.995Z,101206.03
2022-12-25T02:43:00.786Z,101209.59
2022-12-25T02:45:45.724Z,101206.22
2022-12-25T02:48:32.134Z,101202.84
2022-12-25T02:51:17.868Z,101203.69
2022-12-25T02:54:04.427Z,101208.03
2022-12-25T02:56:50.615Z,101216.81
2022-12-25T02:59:37.082Z,101208.22
2022-12-25T03:02:23.102Z,101204.03
2022-12-25T03:05:09.976Z,101199.72
2022-12-25T03:07:38.806Z,101195.53
2022-12-25T03:10:26.524Z,101201.69
2022-12-25T03:13:08.827Z,101200.81
2022-12-25T03:15:54.334Z,101201.59
2022-12-25T03:18:24.508Z,101202.53
2022-12-25T03:21:10.169Z,101208.66
2022-12-25T03:23:56.694Z,101214.00
2022-12-25T03:27:03.086Z,101223.38
2022-12-25T03:29:51.472Z,101214.00
2022-12-25T03:32:20.842Z,101213.13
2022-12-25T03:35:17.629Z,101212.31
2022-12-25T03:38:07.564Z,101210.50
2022-12-25T03:40:57.996Z,101225.13
2022-12-25T03:43:55.941Z,101226.03
2022-12-25T03:46:44.357Z,101216.81
2022-12-25T03:49:52.351Z,101233.13
2022-12-25T03:52:38.624Z,101226.22
2022-12-25T03:55:26.063Z,101228.88
2022-12-25T03:58:11.256Z,101240.94
2022-12-25T04:00:56.425Z,101240.06
2022-12-25T04:03:41.349Z,101242.63
2022-12-25T04:06:26.611Z,101229.94
2022-12-25T04:09:11.565Z,101236.00
2022-12-25T04:12:02.264Z,101240.28
2022-12-25T04:14:47.835Z,101238.66
2022-12-25T04:17:32.909Z,101248.13
2022-12-25T04:20:17.781Z,101246.47
2022-12-25T04:23:02.939Z,101247.28
2022-12-25T04:25:48.083Z,101257.50
2022-12-25T04:28:33.185Z,101251.56
2022-12-25T04:31:21.661Z,101257.59
2022-12-25T04:34:06.907Z,101255.88
2022-12-25T04:36:33.382Z,101255.91
2022-12-25T04:38:59.823Z,101259.34
2022-12-25T04:41:26.420Z,101255.88
2022-12-25T04:43:52.900Z,101259.25
2022-12-25T04:46:19.362Z,101259.25
2022-12-25T04:48:45.886Z,101258.44
2022-12-25T04:51:12.430Z,101258.31
2022-12-25T04:53:38.942Z,101261.75
2022-12-25T04:56:05.710Z,101258.28
2022-12-25T04:58:32.396Z,101262.56
2022-12-25T05:01:00.045Z,101263.44
2022-12-25T05:03:26.594Z,101257.41
2022-12-25T05:05:53.070Z,101253.97
2022-12-25T05:08:20.393Z,101256.56
2022-12-25T05:10:46.962Z,101262.47
2022-12-25T05:13:13.482Z,101260.75
2022-12-25T05:15:40.725Z,101261.56
2022-12-25T05:18:07.468Z,101259.84
2022-12-25T05:20:39.678Z,101264.19
2022-12-25T05:23:06.891Z,101258.19
2022-12-25T05:25:33.391Z,101256.47
2022-12-25T05:27:59.909Z,101249.59
2022-12-25T05:30:26.467Z,101259.84
2022-12-25T05:32:52.919Z,101251.38
2022-12-25T05:35:19.358Z,101253.94
2022-12-25T05:37:46.110Z,101254.75
2022-12-25T05:40:12.614Z,101253.91
2022-12-25T05:42:39.066Z,101250.47
2022-12-25T05:45:05.874Z,101242.69
2022-12-25T05:47:32.331Z,101247.78
2022-12-25T05:49:58.804Z,101235.75
2022-12-25T05:52:25.272Z,101228.13
2022-12-25T05:54:51.737Z,101222.13
2022-12-25T05:57:18.212Z,101226.31
2022-12-25T05:59:44.715Z,101232.38
2022-12-25T06:02:11.329Z,101226.44
2022-12-25T06:04:37.853Z,101231.56
2022-12-25T06:07:04.359Z,101231.66
2022-12-25T06:09:30.823Z,101234.25
2022-12-25T06:11:57.291Z,101232.53
2022-12-25T06:14:23.794Z,101227.47
2022-12-25T06:16:53.838Z,101225.72
2022-12-25T06:19:21.275Z,101225.69
2022-12-25T06:21:47.758Z,101212.88
2022-12-25T06:24:21.020Z,101214.59
2022-12-25T06:26:48.153Z,101222.25
2022-12-25T06:29:14.690Z,101234.28
2022-12-25T06:31:41.519Z,101235.13
2022-12-25T06:34:08.489Z,101226.41
2022-12-25T06:36:37.551Z,101232.38
2022-12-25T06:39:04.453Z,101232.38
2022-12-25T06:41:30.977Z,101230.66
2022-12-25T06:43:58.999Z,101232.31
2022-12-25T06:46:27.112Z,101230.53
2022-12-25T06:48:53.859Z,101234.88
2022-12-25T06:51:21.731Z,101231.34
2022-12-25T06:53:48.847Z,101246.75
2022-12-25T06:56:16.551Z,101255.28
2022-12-25T06:58:50.818Z,101259.59
2022-12-25T07:01:20.639Z,101271.75
2022-12-25T07:03:48.556Z,101274.19
2022-12-25T07:06:17.575Z,101264.75
2022-12-25T07:08:44.039Z,101269.84
2022-12-25T07:11:10.514Z,101275.00
2022-12-25T07:13:37.060Z,101270.72
2022-12-25T07:16:04.746Z,101275.09
2022-12-25T07:18:32.155Z,101281.97
2022-12-25T07:21:01.277Z,101275.94
2022-12-25T07:23:27.780Z,101276.81
2022-12-25T07:25:54.732Z,101281.13
2022-12-25T07:28:21.166Z,101281.97
2022-12-25T07:30:47.662Z,101285.41
2022-12-25T07:33:14.225Z,101295.66
2022-12-25T07:35:40.692Z,101292.22
2022-12-25T07:38:07.253Z,101288.66
2022-12-25T07:40:33.721Z,101298.94
2022-12-25T07:43:00.179Z,101305.69
2022-12-25T07:45:26.773Z,101294.56
2022-12-25T07:47:55.220Z,101291.13
2022-12-25T07:50:21.960Z,101289.38
2022-12-25T07:52:48.464Z,101287.66
2022-12-25T07:55:14.901Z,101287.59
2022-12-25T07:57:41.529Z,101288.38
2022-12-25T08:00:08.343Z,101298.56
2022-12-25T08:02:35.005Z,101298.50
2022-12-25T08:05:01.769Z,101294.13
2022-12-25T08:07:28.574Z,101289.63
2022-12-25T08:09:55.100Z,101278.44
2022-12-25T08:12:21.578Z,101287.81
2022-12-25T08:14:48.090Z,101290.31
2022-12-25T08:17:14.707Z,101284.16
2022-12-25T08:19:41.200Z,101285.94
2022-12-25T08:22:07.764Z,101286.69
2022-12-25T08:24:34.201Z,101292.63
2022-12-25T08:27:00.822Z,101290.03
2022-12-25T08:29:29.007Z,101281.31
2022-12-25T08:31:55.553Z,101273.47
2022-12-25T08:34:22.065Z,101275.25
2022-12-25T08:36:48.523Z,101274.25
2022-12-25T08:39:15.079Z,101280.84
2022-12-25T08:41:41.880Z,101276.28
2022-12-25T08:44:08.761Z,101278.06
2022-12-25T08:46:36.833Z,101265.13
2022-12-25T08:49:03.406Z,101264.06
2022-12-25T08:51:30.222Z,101269.22
2022-12-25T08:53:59.338Z,101258.81
2022-12-25T08:56:25.976Z,101250.94
2022-12-25T08:58:52.443Z,101240.56
2022-12-25T09:01:19.006Z,101244.97
2022-12-25T09:03:45.675Z,101246.88
2022-12-25T09:06:13.761Z,101234.91
2022-12-25T09:08:46.221Z,101233.66
2022-12-25T09:11:15.793Z,101243.00
2022-12-25T09:13:42.377Z,101241.97
2022-12-25T09:16:13.791Z,101234.09
2022-12-25T09:18:40.316Z,101240.00
2022-12-25T09:21:07.894Z,101245.22
2022-12-25T09:23:34.517Z,101248.81
2022-12-25T09:26:02.140Z,101247.75
2022-12-25T09:28:28.686Z,101236.41
2022-12-25T09:30:55.319Z,101244.03
2022-12-25T09:33:22.210Z,101244.78
2022-12-25T09:35:56.804Z,101239.25
2022-12-25T09:38:23.761Z,101244.56
2022-12-25T09:40:59.513Z,101240.84
2022-12-25T09:43:26.755Z,101236.28
2022-12-25T09:45:53.386Z,101229.84
2022-12-25T09:48:20.272Z,101220.31
2022-12-25T09:50:49.967Z,101221.31
2022-12-25T09:53:19.595Z,101217.84
2022-12-25T09:55:50.793Z,101215.88
2022-12-25T09:58:17.320Z,101223.63
2022-12-25T10:00:49.274Z,101227.03
2022-12-25T10:03:15.768Z,101222.66
2022-12-25T10:06:07.581Z,101216.84
2022-12-25T10:08:52.584Z,101231.47
2022-12-25T10:11:19.054Z,101225.75
2022-12-25T10:13:51.696Z,101216.88
2022-12-25T10:16:18.265Z,101237.28
2022-12-25T10:18:50.849Z,101232.13
2022-12-25T10:21:18.483Z,101230.53
2022-12-25T10:24:01.659Z,101230.47
2022-12-25T10:26:30.906Z,101223.94
2022-12-25T10:29:00.474Z,101208.06
2022-12-25T10:31:28.497Z,101208.59
2022-12-25T10:33:55.224Z,101201.34
2022-12-25T10:36:24.346Z,101204.53
2022-12-25T10:38:51.050Z,101193.78
2022-12-25T10:41:29.673Z,101184.19
2022-12-25T10:43:56.944Z,101181.25
2022-12-25T10:46:25.484Z,101183.63
2022-12-25T10:48:54.462Z,101184.47
2022-12-25T10:51:32.865Z,101188.94
2022-12-25T10:53:59.576Z,101188.91
2022-12-25T10:56:26.097Z,101189.44
2022-12-25T10:59:03.823Z,101184.41
2022-12-25T11:01:31.612Z,101191.59
2022-12-25T11:03:58.258Z,101186.25
2022-12-25T11:06:26.197Z,101189.78
2022-12-25T11:08:54.762Z,101182.63
2022-12-25T11:11:21.747Z,101189.44
2022-12-25T11:13:52.765Z,101187.22
2022-12-25T11:16:27.114Z,101188.19
2022-12-25T11:18:54.462Z,101177.44
2022-12-25T11:21:25.453Z,101176.81
2022-12-25T11:24:05.623Z,101170.75
2022-12-25T11:26:36.574Z,101170.41
2022-12-25T11:29:03.196Z,101175.41
2022-12-25T11:31:50.030Z,101174.41
2022-12-25T11:34:31.403Z,101175.50
2022-12-25T11:36:58.848Z,101158.81
2022-12-25T11:39:28.494Z,101146.94
2022-12-25T11:41:58.038Z,101138.38
2022-12-25T11:44:27.589Z,101135.88
2022-12-25T11:46:56.017Z,101126.59
2022-12-25T11:49:22.879Z,101118.34
2022-12-25T11:51:52.002Z,101119.88
2022-12-25T11:54:24.613Z,101095.88
2022-12-25T11:56:51.178Z,101092.50
2022-12-25T11:59:20.438Z,101087.38
2022-12-25T12:01:50.016Z,101075.81
2022-12-25T12:04:27.486Z,101072.88
2022-12-25T12:06:58.094Z,101082.03
2022-12-25T12:09:30.088Z,101078.72
2022-12-25T12:12:07.620Z,101075.72
2022-12-25T12:14:34.043Z,101086.69
2022-12-25T12:17:00.586Z,101085.38
2022-12-25T12:19:29.148Z,101085.47
2022-12-25T12:21:57.204Z,101090.59
2022-12-25T12:24:25.784Z,101077.34
2022-12-25T12:27:03.368Z,101063.25
2022-12-25T12:29:40.381Z,101059.63
2022-12-25T12:32:19.955Z,101053.88
2022-12-25T12:34:50.165Z,101060.44
2022-12-25T12:37:25.119Z,101063.13
2022-12-25T12:39:53.980Z,101061.91
2022-12-25T12:42:22.597Z,101067.25
2022-12-25T12:44:49.951Z,101060.25
2022-12-25T12:47:28.581Z,101055.94
2022-12-25T12:49:59.435Z,101051.63
2022-12-25T12:52:31.283Z,101055.25
2022-12-25T12:55:05.885Z,101053.09
2022-12-25T12:57:35.820Z,101060.88
2022-12-25T13:00:11.322Z,101055.44
2022-12-25T13:02:56.419Z,101047.53
2022-12-25T13:05:41.791Z,101058.97
2022-12-25T13:08:17.464Z,101052.50
2022-12-25T13:10:46.668Z,101057.09
2022-12-25T13:13:17.984Z,101071.28
2022-12-25T13:15:46.395Z,101059.88
2022-12-25T13:18:13.372Z,101049.44
2022-12-25T13:20:39.890Z,101044.13
2022-12-25T13:23:19.215Z,101047.88
2022-12-25T13:25:51.832Z,101043.44
2022-12-25T13:28:23.951Z,101043.19
2022-12-25T13:30:50.457Z,101044.94
2022-12-25T13:33:18.966Z,101032.56
2022-12-25T13:35:45.914Z,101035.00
2022-12-25T13:38:15.798Z,101027.03
2022-12-25T13:41:08.029Z,101023.78
2022-12-25T13:43:34.554Z,101012.47
2022-12-25T13:46:01.073Z,101011.75
2022-12-25T13:48:27.569Z,101002.03
2022-12-25T13:50:58.707Z,100997.38
2022-12-25T13:53:26.366Z,100993.72
2022-12-25T13:55:54.518Z,100971.13
2022-12-25T13:58:25.517Z,100970.25
2022-12-25T14:00:55.723Z,100988.19
2022-12-25T14:03:33.191Z,100988.31
2022-12-25T14:06:01.091Z,100974.38
2022-12-25T14:08:35.084Z,100979.75
2022-12-25T14:11:06.019Z,100984.38
2022-12-25T14:13:35.791Z,100992.00
2022-12-25T14:16:02.327Z,101002.44
2022-12-25T14:18:29.992Z,101001.28
2022-12-25T14:21:04.823Z,100998.78
2022-12-25T14:26:50.771Z,100991.34
2022-12-25T14:29:28.828Z,100986.63
2022-12-25T14:31:57.169Z,100987.31
2022-12-25T14:34:24.403Z,100977.94
2022-12-25T14:36:52.164Z,100969.13
2022-12-25T14:39:27.889Z,100969.47
2022-12-25T14:41:54.514Z,100960.69
2022-12-25T14:44:28.210Z,100957.41
2022-12-25T14:47:14.940Z,100952.06
2022-12-25T14:49:41.977Z,100945.44
2022-12-25T14:52:19.640Z,100948.19
2022-12-25T14:54:51.175Z,100933.41
2022-12-25T14:57:27.114Z,100922.94
2022-12-25T14:59:57.923Z,100923.06
2022-12-25T15:02:25.151Z,100935.44
2022-12-25T15:04:51.742Z,100938.81
2022-12-25T15:07:31.170Z,100934.34
2022-12-25T15:10:27.245Z,100924.56
2022-12-25T15:12:44.384Z,100934.38
2022-12-25T15:15:10.949Z,100925.94
2022-12-25T15:17:38.209Z,100919.84
2022-12-25T15:20:05.501Z,100923.41
2022-12-25T15:22:54.098Z,100925.28
2022-12-25T15:25:21.129Z,100913.72
2022-12-25T15:27:47.983Z,100915.34
2022-12-25T15:30:14.582Z,100911.97
2022-12-25T15:32:41.099Z,100918.41
2022-12-25T15:35:13.236Z,100930.06
2022-12-25T15:37:39.791Z,100930.44
2022-12-25T15:40:21.463Z,100920.34
2022-12-25T15:42:49.209Z,100906.81
2022-12-25T15:45:21.223Z,100903.03
2022-12-25T15:47:47.845Z,100897.50
2022-12-25T15:50:15.077Z,100898.56
2022-12-25T15:52:42.000Z,100893.59
2022-12-25T15:55:08.843Z,100882.38
2022-12-25T15:57:35.427Z,100890.81
2022-12-25T16:00:02.539Z,100884.91
2022-12-25T16:02:29.218Z,100875.19
2022-12-25T16:04:55.802Z,100879.78
2022-12-25T16:07:23.587Z,100869.19
2022-12-25T16:09:50.126Z,100858.97
2022-12-25T16:12:16.732Z,100847.81
2022-12-25T16:14:43.252Z,100850.72
2022-12-25T16:17:14.885Z,100851.09
2022-12-25T16:19:42.168Z,100847.03
2022-12-25T16:22:12.478Z,100848.72
2022-12-25T16:24:39.004Z,100855.34
2022-12-25T16:27:05.603Z,100851.34
2022-12-25T16:29:32.090Z,100851.09
2022-12-25T16:32:08.039Z,100839.13
2022-12-25T16:34:37.032Z,100841.41
2022-12-25T16:37:08.110Z,100831.41
2022-12-25T16:39:37.753Z,100825.72
2022-12-25T16:42:19.943Z,100811.97
2022-12-25T16:44:51.471Z,100810.97
2022-12-25T16:47:18.353Z,100804.44
2022-12-25T16:49:47.441Z,100797.91
2022-12-25T16:52:13.950Z,100788.91
2022-12-25T16:54:40.562Z,100785.75
2022-12-25T16:57:07.041Z,100779.78
2022-12-25T16:59:34.656Z,100776.34
2022-12-25T17:02:01.309Z,100762.47
2022-12-25T17:04:28.236Z,100753.31
2022-12-25T17:06:54.783Z,100762.41
2022-12-25T17:09:21.296Z,100755.44
2022-12-25T17:11:48.159Z,100756.31
2022-12-25T17:14:14.699Z,100758.75
2022-12-25T17:16:41.300Z,100750.25
2022-12-25T17:19:11.870Z,100742.44
2022-12-25T17:21:38.602Z,100735.84
2022-12-25T17:24:05.402Z,100725.94
2022-12-25T17:26:32.397Z,100737.03
2022-12-25T17:28:58.913Z,100733.19
2022-12-25T17:31:25.715Z,100739.28
2022-12-25T17:33:52.386Z,100739.38
2022-12-25T17:36:20.183Z,100728.88
2022-12-25T17:38:47.736Z,100732.50
2022-12-25T17:41:15.512Z,100724.72
2022-12-25T17:43:42.496Z,100716.00
2022-12-25T17:46:13.479Z,100711.63
2022-12-25T17:48:40.346Z,100703.56
2022-12-25T17:51:08.157Z,100686.25
2022-12-25T17:53:35.539Z,100693.19
2022-12-25T17:56:02.058Z,100689.00
2022-12-25T17:58:28.657Z,100672.84
2022-12-25T18:00:55.588Z,100660.97
2022-12-25T18:03:22.237Z,100645.72
2022-12-25T18:05:48.998Z,100644.34
2022-12-25T18:08:15.534Z,100661.97
2022-12-25T18:10:42.959Z,100672.84
2022-12-25T18:13:10.525Z,100684.94
2022-12-25T18:15:37.984Z,100693.88
2022-12-25T18:18:04.654Z,100699.06
2022-12-25T18:20:37.657Z,100708.09
2022-12-25T18:23:06.215Z,100701.91
2022-12-25T18:25:33.884Z,100687.06
2022-12-25T18:28:02.629Z,100673.94
2022-12-25T18:30:29.503Z,100663.66
2022-12-25T18:32:56.052Z,100649.75
2022-12-25T18:35:22.652Z,100641.09
2022-12-25T18:37:49.206Z,100631.44
2022-12-25T18:40:15.684Z,100646.06
2022-12-25T18:42:43.324Z,100634.66
2022-12-25T18:45:11.793Z,100631.84
2022-12-25T18:47:38.218Z,100640.88
2022-12-25T18:50:05.955Z,100627.66
2022-12-25T18:52:48.000Z,100618.00
2022-12-25T18:55:17.804Z,100604.59
2022-12-25T18:57:44.278Z,100594.84
2022-12-25T19:00:10.947Z,100594.84
2022-12-25T19:02:37.550Z,100580.41
2022-12-25T19:05:04.305Z,100581.16
2022-12-25T19:07:30.839Z,100584.31
2022-12-25T19:09:57.274Z,100573.75
2022-12-25T19:12:23.943Z,100577.28
2022-12-25T19:14:50.484Z,100570.41
2022-12-25T19:17:17.894Z,100570.00
2022-12-25T19:19:44.504Z,100554.59
2022-12-25T19:22:11.007Z,100548.09
2022-12-25T19:24:37.591Z,100550.00
2022-12-25T19:27:04.104Z,100529.63
2022-12-25T19:29:31.650Z,100535.91
2022-12-25T19:31:58.290Z,100527.72
2022-12-25T19:34:25.168Z,100526.25
2022-12-25T19:36:51.820Z,100527.63
2022-12-25T19:39:18.471Z,100517.97
2022-12-25T19:41:45.026Z,100519.63
2022-12-25T19:44:11.532Z,100522.31
2022-12-25T19:46:40.438Z,100508.47
2022-12-25T19:49:07.913Z,100509.88
2022-12-25T19:51:38.440Z,100521.16
2022-12-25T19:54:06.036Z,100510.16
2022-12-25T19:56:32.954Z,100507.63
2022-12-25T19:58:59.572Z,100509.81
2022-12-25T20:01:27.309Z,100507.47
2022-12-25T20:03:54.264Z,100501.31
2022-12-25T20:06:26.104Z,100497.53
2022-12-25T20:08:54.370Z,100501.09
2022-12-25T20:11:21.499Z,100500.50
2022-12-25T20:13:48.049Z,100497.06
2022-12-25T20:16:14.779Z,100500.59
2022-12-25T20:18:41.363Z,100503.84
2022-12-25T20:21:10.760Z,100499.56
2022-12-25T20:23:37.386Z,100498.72
2022-12-25T20:26:07.245Z,100498.50
2022-12-25T20:28:34.656Z,100480.19
2022-12-25T20:31:13.446Z,100482.88
2022-12-25T20:33:40.508Z,100474.31
2022-12-25T20:36:07.388Z,100479.91
2022-12-25T20:38:35.108Z,100476.91
2022-12-25T20:41:26.131Z,100468.44
2022-12-25T20:43:50.162Z,100464.97
2022-12-25T20:46:17.009Z,100469.13
2022-12-25T20:48:44.060Z,100470.47
2022-12-25T20:51:12.865Z,100474.63
2022-12-25T20:53:39.792Z,100470.38
2022-12-25T20:56:08.157Z,100461.63
2022-12-25T20:58:34.713Z,100454.50
2022-12-25T21:01:04.335Z,100450.13
2022-12-25T21:03:31.131Z,100445.41
2022-12-25T21:05:57.726Z,100449.94
2022-12-25T21:08:25.068Z,100446.09
2022-12-25T21:10:52.666Z,100438.28
2022-12-25T21:13:19.872Z,100429.47
2022-12-25T21:15:47.302Z,100423.91
2022-12-25T21:18:14.504Z,100420.88
2022-12-25T21:20:42.956Z,100431.09
2022-12-25T21:23:09.453Z,100429.81
2022-12-25T21:25:35.993Z,100439.06
2022-12-25T21:28:02.485Z,100426.72
2022-12-25T21:30:29.011Z,100426.81
2022-12-25T21:33:33.941Z,100431.25
2022-12-25T21:36:10.590Z,100430.97
2022-12-25T21:38:37.757Z,100435.94
2022-12-25T21:41:14.173Z,100415.38
2022-12-25T21:43:41.036Z,100406.25
2022-12-25T21:46:08.979Z,100411.22
2022-12-25T21:48:36.573Z,100411.22
2022-12-25T21:51:25.931Z,100400.78
2022-12-25T21:53:52.399Z,100416.84
2022-12-25T21:56:19.098Z,100418.53
2022-12-25T21:58:45.659Z,100411.84
2022-12-25T22:01:14.514Z,100428.22
2022-12-25T22:03:41.126Z,100431.56
2022-12-25T22:06:26.355Z,100438.44
2022-12-25T22:08:52.886Z,100428.63
2022-12-25T22:11:38.080Z,100420.16
2022-12-25T22:14:51.839Z,100410.41
2022-12-25T22:17:28.568Z,100429.47
2022-12-25T22:19:55.545Z,100422.22
2022-12-25T22:22:23.675Z,100429.38
2022-12-25T22:24:51.350Z,100437.19
2022-12-25T22:27:18.125Z,100433.38
2022-12-25T22:29:44.603Z,100413.38
2022-12-25T22:32:13.464Z,100405.63
2022-12-25T22:34:40.275Z,100407.59
2022-12-25T22:37:07.245Z,100418.66
2022-12-25T22:39:33.873Z,100408.91
2022-12-25T22:42:01.296Z,100408.06
2022-12-25T22:44:30.032Z,100401.00
2022-12-25T22:46:57.887Z,100394.31
2022-12-25T22:49:24.680Z,100397.94
2022-12-25T22:51:51.643Z,100389.91
2022-12-25T22:54:19.901Z,100395.22
2022-12-25T22:56:47.827Z,100390.78
2022-12-25T22:59:15.336Z,100387.97
2022-12-25T23:01:41.968Z,100386.31
2022-12-25T23:04:09.639Z,100373.19
2022-12-25T23:06:36.188Z,100376.72
2022-12-25T23:09:03.723Z,100376.81
2022-12-25T23:11:30.541Z,100355.38
2022-12-25T23:14:15.589Z,100362.47
2022-12-25T23:16:42.200Z,100347.88
2022-12-25T23:19:27.423Z,100347.97
2022-12-25T23:22:12.257Z,100343.13
2022-12-25T23:24:57.096Z,100358.00
2022-12-25T23:27:23.603Z,100361.25
2022-12-25T23:29:50.053Z,100354.38
2022-12-25T23:32:18.045Z,100354.00
2022-12-25T23:34:45.572Z,100361.81
2022-12-25T23:37:12.132Z,100357.34
2022-12-25T23:39:38.610Z,100352.13
2022-12-25T23:42:05.115Z,100349.53
2022-12-25T23:44:31.616Z,100357.47
2022-12-25T23:46:58.189Z,100361.81
2022-12-25T23:49:25.525Z,100360.50
2022-12-25T23:51:52.377Z,100369.19
2022-12-25T23:54:23.667Z,100372.72
2022-12-25T23:56:50.215Z,100376.16
2022-12-25T23:59:16.842Z,100370.84
